createdAt,value
2022-12-24T00:01:58.367Z,9.63
2022-12-24T00:04:26.309Z,8.90
2022-12-24T00:06:54.360Z,8.77
2022-12-24T00:09:22.430Z,8.20
2022-12-24T00:11:50.474Z,8.10
2022-12-24T00:14:18.588Z,7.43
2022-12-24T00:16:48.199Z,8.20
2022-12-24T00:19:16.388Z,8.83
2022-12-24T00:21:44.713Z,8.17
2022-12-24T00:24:12.491Z,7.67
2022-12-24T00:26:40.329Z,7.73
2022-12-24T00:29:08.477Z,7.77
2022-12-24T00:31:36.220Z,6.77
2022-12-24T00:34:05.255Z,6.23
2022-12-24T00:36:32.950Z,6.20
2022-12-24T00:39:00.640Z,6.40
2022-12-24T00:41:29.552Z,5.37
2022-12-24T00:43:58.087Z,5.77
2022-12-24T00:46:26.316Z,5.93
2022-12-24T00:48:54.111Z,5.47
2022-12-24T00:51:23.460Z,5.57
2022-12-24T00:53:51.315Z,5.50
2022-12-24T00:56:19.402Z,4.90
2022-12-24T00:58:47.258Z,5.50
2022-12-24T01:01:15.639Z,4.97
2022-12-24T01:03:43.601Z,4.73
2022-12-24T01:06:11.640Z,4.70
2022-12-24T01:08:40.674Z,4.77
2022-12-24T01:11:10.422Z,5.10
2022-12-24T01:13:38.117Z,4.97
2022-12-24T01:16:12.740Z,4.17
2022-12-24T01:18:40.431Z,4.10
2022-12-24T01:21:08.129Z,5.00
2022-12-24T01:23:35.898Z,4.47
2022-12-24T01:26:08.531Z,4.70
2022-12-24T01:28:36.212Z,4.20
2022-12-24T01:31:04.019Z,3.87
2022-12-24T01:33:32.319Z,4.30
2022-12-24T01:36:03.698Z,4.00
2022-12-24T01:38:31.456Z,4.03
2022-12-24T01:41:17.036Z,4.53
2022-12-24T01:43:46.171Z,4.10
2022-12-24T01:46:15.361Z,4.03
2022-12-24T01:48:45.436Z,4.23
2022-12-24T01:51:18.664Z,4.00
2022-12-24T01:53:48.983Z,3.90
2022-12-24T01:56:16.693Z,4.27
2022-12-24T01:58:47.207Z,4.00
2022-12-24T02:01:14.953Z,3.87
2022-12-24T02:03:42.795Z,3.90
2022-12-24T02:06:12.555Z,3.27
2022-12-24T02:08:43.137Z,3.87
2022-12-24T02:11:12.393Z,4.23
2022-12-24T02:13:40.146Z,4.03
2022-12-24T02:16:13.572Z,4.23
2022-12-24T02:18:44.372Z,3.20
2022-12-24T02:21:49.464Z,3.97
2022-12-24T02:24:32.047Z,4.00
2022-12-24T02:27:11.078Z,4.20
2022-12-24T02:30:15.016Z,3.93
2022-12-24T02:32:54.451Z,4.23
2022-12-24T02:35:25.147Z,5.83
2022-12-24T02:37:55.463Z,5.40
2022-12-24T02:40:24.607Z,5.20
2022-12-24T02:42:54.730Z,5.07
2022-12-24T02:45:23.820Z,5.00
2022-12-24T02:47:53.178Z,4.97
2022-12-24T02:50:20.924Z,5.97
2022-12-24T02:52:49.325Z,5.40
2022-12-24T02:55:18.582Z,4.70
2022-12-24T02:58:01.899Z,4.57
2022-12-24T03:00:29.771Z,4.87
2022-12-24T03:03:12.219Z,4.90
2022-12-24T03:05:43.455Z,4.90
2022-12-24T03:08:15.286Z,4.90
2022-12-24T03:10:48.134Z,5.40
2022-12-24T03:13:17.271Z,4.77
2022-12-24T03:15:45.253Z,4.67
2022-12-24T03:18:17.341Z,5.17
2022-12-24T03:20:46.249Z,4.67
2022-12-24T03:23:14.635Z,4.83
2022-12-24T03:25:43.373Z,4.57
2022-12-24T03:28:11.771Z,4.20
2022-12-24T03:30:41.182Z,4.30
2022-12-24T03:33:09.120Z,4.13
2022-12-24T03:35:38.970Z,4.57
2022-12-24T03:38:07.235Z,5.10
2022-12-24T03:40:35.780Z,4.70
2022-12-24T03:43:03.675Z,4.90
2022-12-24T03:45:31.651Z,5.20
2022-12-24T03:47:59.822Z,4.17
2022-12-24T03:50:28.078Z,4.27
2022-12-24T03:52:57.440Z,4.20
2022-12-24T03:55:25.447Z,4.70
2022-12-24T03:57:53.406Z,4.83
2022-12-24T04:00:21.940Z,4.30
2022-12-24T04:02:50.278Z,4.03
2022-12-24T04:05:19.307Z,4.27
2022-12-24T04:07:47.230Z,4.30
2022-12-24T04:10:16.705Z,3.93
2022-12-24T04:12:45.120Z,3.93
2022-12-24T04:15:13.013Z,4.00
2022-12-24T04:17:40.706Z,4.53
2022-12-24T04:20:09.577Z,4.37
2022-12-24T04:22:37.452Z,3.60
2022-12-24T04:25:06.169Z,3.90
2022-12-24T04:27:35.483Z,3.87
2022-12-24T04:30:03.449Z,3.93
2022-12-24T04:32:31.324Z,3.63
2022-12-24T04:34:59.187Z,4.07
2022-12-24T04:37:27.156Z,4.27
2022-12-24T04:39:55.166Z,3.90
2022-12-24T04:42:23.046Z,3.63
2022-12-24T04:44:52.054Z,3.60
2022-12-24T04:47:20.077Z,3.43
2022-12-24T04:49:50.210Z,3.37
2022-12-24T04:52:17.978Z,3.90
2022-12-24T04:54:45.673Z,3.73
2022-12-24T04:57:13.796Z,3.33
2022-12-24T04:59:41.719Z,3.50
2022-12-24T05:02:11.737Z,3.83
2022-12-24T05:04:39.986Z,3.60
2022-12-24T05:07:07.853Z,4.00
2022-12-24T05:09:35.889Z,3.87
2022-12-24T05:12:03.856Z,4.30
2022-12-24T05:14:31.806Z,4.37
2022-12-24T05:16:59.725Z,4.10
2022-12-24T05:19:29.131Z,3.80
2022-12-24T05:22:11.349Z,4.47
2022-12-24T05:24:56.748Z,3.97
2022-12-24T05:27:25.199Z,4.50
2022-12-24T05:29:53.121Z,4.00
2022-12-24T05:32:21.046Z,4.20
2022-12-24T05:34:50.067Z,4.10
2022-12-24T05:37:17.745Z,4.30
2022-12-24T05:39:45.450Z,4.20
2022-12-24T05:42:13.220Z,4.10
2022-12-24T05:44:41.525Z,3.60
2022-12-24T05:47:09.336Z,3.90
2022-12-24T05:49:37.626Z,4.70
2022-12-24T05:52:07.046Z,4.93
2022-12-24T05:54:34.793Z,4.70
2022-12-24T05:57:02.555Z,4.50
2022-12-24T05:59:30.322Z,4.53
2022-12-24T06:01:58.201Z,4.40
2022-12-24T06:04:28.889Z,4.37
2022-12-24T06:06:57.213Z,3.80
2022-12-24T06:09:26.375Z,4.23
2022-12-24T06:11:54.790Z,4.73
2022-12-24T06:14:22.767Z,4.63
2022-12-24T06:16:50.806Z,4.50
2022-12-24T06:19:18.727Z,4.70
2022-12-24T06:21:46.770Z,4.03
2022-12-24T06:24:15.522Z,4.23
2022-12-24T06:26:44.893Z,4.73
2022-12-24T06:29:12.914Z,4.33
2022-12-24T06:31:41.089Z,4.47
2022-12-24T06:34:09.200Z,3.80
2022-12-24T06:36:37.101Z,3.80
2022-12-24T06:39:04.932Z,4.23
2022-12-24T06:41:32.710Z,3.90
2022-12-24T06:44:01.826Z,3.83
2022-12-24T06:46:29.625Z,3.93
2022-12-24T06:48:57.402Z,3.70
2022-12-24T06:51:25.575Z,3.73
2022-12-24T06:53:53.495Z,4.30
2022-12-24T06:56:21.774Z,4.00
2022-12-24T06:58:50.127Z,3.87
2022-12-24T07:01:20.968Z,3.63
2022-12-24T07:03:49.399Z,3.93
2022-12-24T07:06:19.798Z,3.33
2022-12-24T07:08:47.540Z,3.70
2022-12-24T07:11:15.897Z,3.90
2022-12-24T07:13:43.645Z,4.20
2022-12-24T07:16:11.542Z,4.17
2022-12-24T07:18:40.711Z,3.50
2022-12-24T07:21:08.904Z,4.47
2022-12-24T07:23:36.732Z,3.30
2022-12-24T07:26:05.257Z,3.50
2022-12-24T07:28:36.259Z,3.63
2022-12-24T07:31:04.092Z,3.90
2022-12-24T07:33:31.977Z,3.90
2022-12-24T07:36:02.380Z,3.83
2022-12-24T07:38:30.293Z,3.87
2022-12-24T07:40:58.090Z,3.80
2022-12-24T07:43:26.022Z,3.67
2022-12-24T07:45:56.151Z,3.80
2022-12-24T07:48:24.545Z,4.00
2022-12-24T07:50:52.550Z,3.90
2022-12-24T07:53:21.643Z,3.47
2022-12-24T07:55:50.089Z,3.70
2022-12-24T07:58:18.113Z,4.10
2022-12-24T08:00:45.877Z,3.80
2022-12-24T08:03:16.021Z,3.20
2022-12-24T08:05:44.014Z,3.90
2022-12-24T08:08:11.775Z,4.13
2022-12-24T08:10:41.622Z,4.07
2022-12-24T08:13:09.388Z,3.53
2022-12-24T08:15:37.309Z,3.80
2022-12-24T08:18:05.318Z,4.00
2022-12-24T08:20:33.101Z,4.10
2022-12-24T08:23:01.534Z,3.97
2022-12-24T08:25:29.280Z,4.13
2022-12-24T08:27:59.039Z,4.47
2022-12-24T08:30:27.061Z,3.63
2022-12-24T08:32:55.871Z,4.20
2022-12-24T08:35:25.900Z,3.90
2022-12-24T08:37:53.970Z,3.87
2022-12-24T08:40:22.186Z,4.03
2022-12-24T08:42:50.829Z,4.13
2022-12-24T08:45:20.441Z,3.90
2022-12-24T08:47:49.425Z,4.07
2022-12-24T08:50:32.675Z,4.07
2022-12-24T08:53:00.858Z,3.57
2022-12-24T08:55:28.885Z,3.63
2022-12-24T08:57:58.220Z,3.70
2022-12-24T09:00:31.282Z,3.57
2022-12-24T09:03:01.429Z,3.93
2022-12-24T09:05:36.893Z,3.57
2022-12-24T09:08:07.665Z,3.60
2022-12-24T09:10:35.777Z,4.20
2022-12-24T09:13:03.843Z,3.33
2022-12-24T09:15:33.530Z,4.10
2022-12-24T09:18:04.318Z,4.17
2022-12-24T09:20:32.754Z,3.60
2022-12-24T09:23:01.190Z,3.80
2022-12-24T09:25:29.247Z,3.83
2022-12-24T09:28:03.630Z,3.77
2022-12-24T09:30:41.857Z,3.77
2022-12-24T09:33:12.282Z,3.90
2022-12-24T09:35:43.153Z,3.90
2022-12-24T09:38:11.584Z,3.47
2022-12-24T09:40:42.892Z,3.90
2022-12-24T09:43:17.197Z,3.30
2022-12-24T09:45:56.020Z,3.70
2022-12-24T09:48:27.119Z,3.50
2022-12-24T09:51:14.476Z,4.40
2022-12-24T09:53:45.333Z,3.63
2022-12-24T09:56:14.895Z,4.57
2022-12-24T09:58:47.705Z,3.27
2022-12-24T10:01:18.001Z,3.40
2022-12-24T10:03:47.204Z,3.60
2022-12-24T10:06:17.127Z,3.47
2022-12-24T10:08:55.509Z,3.73
2022-12-24T10:11:25.577Z,3.77
2022-12-24T10:14:01.981Z,4.00
2022-12-24T10:16:37.123Z,4.00
2022-12-24T10:19:10.196Z,3.40
2022-12-24T10:21:42.088Z,3.43
2022-12-24T10:24:14.026Z,3.60
2022-12-24T10:26:45.735Z,3.60
2022-12-24T10:29:15.469Z,3.70
2022-12-24T10:31:47.534Z,3.63
2022-12-24T10:34:16.914Z,3.43
2022-12-24T10:36:44.676Z,3.73
2022-12-24T10:39:13.710Z,4.00
2022-12-24T10:41:42.038Z,3.50
2022-12-24T10:44:10.529Z,3.87
2022-12-24T10:46:40.197Z,3.90
2022-12-24T10:49:13.619Z,3.60
2022-12-24T10:51:43.602Z,3.30
2022-12-24T10:54:13.825Z,3.53
2022-12-24T10:56:43.405Z,2.90
2022-12-24T10:59:24.470Z,3.33
2022-12-24T11:01:52.805Z,3.27
2022-12-24T11:04:23.083Z,3.67
2022-12-24T11:06:54.326Z,3.47
2022-12-24T11:09:23.387Z,3.83
2022-12-24T11:11:51.317Z,3.60
2022-12-24T11:14:19.895Z,4.00
2022-12-24T11:16:52.761Z,3.53
2022-12-24T11:19:31.437Z,3.50
2022-12-24T11:22:01.430Z,3.40
2022-12-24T11:24:32.336Z,3.90
2022-12-24T11:27:25.822Z,3.83
2022-12-24T11:29:54.491Z,3.87
2022-12-24T11:32:25.043Z,3.87
2022-12-24T11:34:54.422Z,3.50
2022-12-24T11:37:23.688Z,3.60
2022-12-24T11:39:52.501Z,3.90
2022-12-24T11:42:32.297Z,3.30
2022-12-24T11:45:01.055Z,3.73
2022-12-24T11:47:35.772Z,3.70
2022-12-24T11:50:27.230Z,3.60
2022-12-24T11:52:59.348Z,3.43
2022-12-24T11:55:35.111Z,3.30
2022-12-24T11:58:05.729Z,3.73
2022-12-24T12:00:33.724Z,3.60
2022-12-24T12:03:02.804Z,3.53
2022-12-24T12:05:33.831Z,3.87
2022-12-24T12:08:07.491Z,4.17
2022-12-24T12:10:38.642Z,4.03
2022-12-24T12:13:12.944Z,4.60
2022-12-24T12:15:44.391Z,4.00
2022-12-24T12:18:13.373Z,3.60
2022-12-24T12:20:44.608Z,3.97
2022-12-24T12:23:15.622Z,3.67
2022-12-24T12:25:46.286Z,3.73
2022-12-24T12:28:17.704Z,3.57
2022-12-24T12:30:45.583Z,3.03
2022-12-24T12:33:17.867Z,3.23
2022-12-24T12:35:47.324Z,3.00
2022-12-24T12:38:17.692Z,3.80
2022-12-24T12:40:59.521Z,3.40
2022-12-24T12:43:35.383Z,3.83
2022-12-24T12:46:05.966Z,3.93
2022-12-24T12:49:02.879Z,3.37
2022-12-24T12:51:35.979Z,3.73
2022-12-24T12:54:14.842Z,3.67
2022-12-24T12:56:43.793Z,4.17
2022-12-24T12:59:13.840Z,4.27
2022-12-24T13:01:44.871Z,4.50
2022-12-24T13:04:53.491Z,4.60
2022-12-24T13:07:48.352Z,3.80
2022-12-24T13:10:28.144Z,4.37
2022-12-24T13:13:24.173Z,4.00
2022-12-24T13:16:19.827Z,4.30
2022-12-24T13:18:55.792Z,4.30
2022-12-24T13:21:24.947Z,3.60
2022-12-24T13:24:04.037Z,4.00
2022-12-24T13:26:32.154Z,4.20
2022-12-24T13:29:30.298Z,4.23
2022-12-24T13:32:29.071Z,4.60
2022-12-24T13:34:59.451Z,3.50
2022-12-24T13:37:34.182Z,3.80
2022-12-24T13:40:17.227Z,3.80
2022-12-24T13:46:13.422Z,3.70
2022-12-24T13:48:41.570Z,3.40
2022-12-24T13:51:20.695Z,3.90
2022-12-24T13:53:49.028Z,4.70
2022-12-24T13:56:29.149Z,4.43
2022-12-24T13:58:58.223Z,4.40
2022-12-24T14:01:34.756Z,4.20
2022-12-24T14:04:03.692Z,4.57
2022-12-24T14:06:32.486Z,4.30
2022-12-24T14:09:07.599Z,4.50
2022-12-24T14:12:27.506Z,5.00
2022-12-24T14:14:56.926Z,4.70
2022-12-24T14:17:25.627Z,4.50
2022-12-24T14:19:54.572Z,5.07
2022-12-24T14:22:28.682Z,4.90
2022-12-24T14:24:57.677Z,5.20
2022-12-24T14:27:29.328Z,4.60
2022-12-24T14:30:03.884Z,4.43
2022-12-24T14:32:35.713Z,3.50
2022-12-24T14:35:12.886Z,4.43
2022-12-24T14:37:41.343Z,4.07
2022-12-24T14:40:10.454Z,4.20
2022-12-24T14:42:43.391Z,4.27
2022-12-24T14:45:19.938Z,4.63
2022-12-24T14:47:51.646Z,4.90
2022-12-24T14:51:00.927Z,4.77
2022-12-24T14:53:35.684Z,4.37
2022-12-24T14:56:10.800Z,3.90
2022-12-24T14:58:40.284Z,4.40
2022-12-24T15:01:22.661Z,4.50
2022-12-24T15:04:02.374Z,5.00
2022-12-24T15:06:30.918Z,4.33
2022-12-24T15:08:58.931Z,4.20
2022-12-24T15:11:27.282Z,5.00
2022-12-24T15:13:56.374Z,4.53
2022-12-24T15:16:27.650Z,5.43
2022-12-24T15:18:56.925Z,4.10
2022-12-24T15:21:27.789Z,4.13
2022-12-24T15:23:55.929Z,5.03
2022-12-24T15:26:26.653Z,4.30
2022-12-24T15:29:02.277Z,3.50
2022-12-24T15:31:33.099Z,4.03
2022-12-24T15:34:01.371Z,3.87
2022-12-24T15:36:31.710Z,4.10
2022-12-24T15:39:00.339Z,3.40
2022-12-24T15:41:35.484Z,3.97
2022-12-24T15:44:04.302Z,4.10
2022-12-24T15:46:34.310Z,3.50
2022-12-24T15:49:02.600Z,3.50
2022-12-24T15:51:32.023Z,4.40
2022-12-24T15:54:00.863Z,4.30
2022-12-24T15:56:36.315Z,4.90
2022-12-24T15:59:28.945Z,4.40
2022-12-24T16:01:58.758Z,4.80
2022-12-24T16:04:27.523Z,4.20
2022-12-24T16:06:56.758Z,4.17
2022-12-24T16:09:42.170Z,4.80
2022-12-24T16:12:17.741Z,4.00
2022-12-24T16:14:50.056Z,4.00
2022-12-24T16:17:24.334Z,5.37
2022-12-24T16:19:53.055Z,4.63
2022-12-24T16:22:35.383Z,5.10
2022-12-24T16:25:16.931Z,4.50
2022-12-24T16:27:44.875Z,4.47
2022-12-24T16:30:13.641Z,4.10
2022-12-24T16:32:43.127Z,4.10
2022-12-24T16:35:19.873Z,4.53
2022-12-24T16:37:47.747Z,4.10
2022-12-24T16:40:20.608Z,4.10
2022-12-24T16:43:08.074Z,4.13
2022-12-24T16:45:36.733Z,3.90
2022-12-24T16:48:06.966Z,4.73
2022-12-24T16:50:34.832Z,3.70
2022-12-24T16:53:02.819Z,4.10
2022-12-24T16:55:31.027Z,3.70
2022-12-24T16:57:59.117Z,4.87
2022-12-24T17:00:27.487Z,5.40
2022-12-24T17:02:55.612Z,4.60
2022-12-24T17:05:25.025Z,4.40
2022-12-24T17:07:52.962Z,4.37
2022-12-24T17:10:20.997Z,5.60
2022-12-24T17:12:49.414Z,4.50
2022-12-24T17:15:17.454Z,6.47
2022-12-24T17:17:45.467Z,5.40
2022-12-24T17:20:17.785Z,5.63
2022-12-24T17:22:49.835Z,4.50
2022-12-24T17:25:18.333Z,4.40
2022-12-24T17:27:46.604Z,4.67
2022-12-24T17:30:16.676Z,3.30
2022-12-24T17:32:44.593Z,4.00
2022-12-24T17:35:12.976Z,4.67
2022-12-24T17:37:40.843Z,4.03
2022-12-24T17:40:12.464Z,3.97
2022-12-24T17:42:40.456Z,4.37
2022-12-24T17:45:09.032Z,4.60
2022-12-24T17:47:36.940Z,4.10
2022-12-24T17:50:05.442Z,3.97
2022-12-24T17:52:35.175Z,4.00
2022-12-24T17:55:02.866Z,3.60
2022-12-24T17:57:31.916Z,3.90
2022-12-24T17:59:59.624Z,3.30
2022-12-24T18:02:27.708Z,3.90
2022-12-24T18:04:55.717Z,3.90
2022-12-24T18:07:23.757Z,3.90
2022-12-24T18:09:51.660Z,4.30
2022-12-24T18:12:19.586Z,3.77
2022-12-24T18:14:48.841Z,4.30
2022-12-24T18:17:16.915Z,4.10
2022-12-24T18:19:44.991Z,3.97
2022-12-24T18:22:12.947Z,4.03
2022-12-24T18:24:40.979Z,3.70
2022-12-24T18:27:08.868Z,4.00
2022-12-24T18:29:39.905Z,4.43
2022-12-24T18:32:09.187Z,3.90
2022-12-24T18:34:37.556Z,4.47
2022-12-24T18:37:07.959Z,4.90
2022-12-24T18:39:36.051Z,6.10
2022-12-24T18:42:03.962Z,6.20
2022-12-24T18:44:31.923Z,5.67
2022-12-24T18:47:00.015Z,5.30
2022-12-24T18:49:29.562Z,4.97
2022-12-24T18:51:57.586Z,4.87
2022-12-24T18:54:25.421Z,5.00
2022-12-24T18:56:53.412Z,5.23
2022-12-24T18:59:21.400Z,5.10
2022-12-24T19:01:49.423Z,5.57
2022-12-24T19:04:17.653Z,5.00
2022-12-24T19:06:52.734Z,4.77
2022-12-24T19:09:21.342Z,5.10
2022-12-24T19:11:49.165Z,5.47
2022-12-24T19:14:20.170Z,4.73
2022-12-24T19:16:48.627Z,4.47
2022-12-24T19:19:16.619Z,5.10
2022-12-24T19:21:46.265Z,4.80
2022-12-24T19:24:14.507Z,4.53
2022-12-24T19:26:42.497Z,5.40
2022-12-24T19:29:10.807Z,4.60
2022-12-24T19:31:38.588Z,5.40
2022-12-24T19:34:06.565Z,5.33
2022-12-24T19:36:35.168Z,5.70
2022-12-24T19:39:04.782Z,4.77
2022-12-24T19:41:32.851Z,5.40
2022-12-24T19:44:02.192Z,5.67
2022-12-24T19:46:31.362Z,5.37
2022-12-24T19:49:01.366Z,5.70
2022-12-24T19:51:31.998Z,5.37
2022-12-24T19:54:00.208Z,5.47
2022-12-24T19:56:30.513Z,6.30
2022-12-24T19:58:58.682Z,5.67
2022-12-24T20:01:27.873Z,6.20
2022-12-24T20:03:56.139Z,5.60
2022-12-24T20:06:26.417Z,5.40
2022-12-24T20:08:58.114Z,5.27
2022-12-24T20:11:25.911Z,5.67
2022-12-24T20:13:57.429Z,4.90
2022-12-24T20:16:25.453Z,5.37
2022-12-24T20:18:53.656Z,5.80
2022-12-24T20:21:21.917Z,4.83
2022-12-24T20:23:49.930Z,6.10
2022-12-24T20:26:18.585Z,5.37
2022-12-24T20:28:47.032Z,5.40
2022-12-24T20:31:17.226Z,5.40
2022-12-24T20:33:45.531Z,5.40
2022-12-24T20:36:13.923Z,5.03
2022-12-24T20:38:41.817Z,5.80
2022-12-24T20:41:10.480Z,4.70
2022-12-24T20:43:44.948Z,5.70
2022-12-24T20:46:16.524Z,4.60
2022-12-24T20:48:44.565Z,5.40
2022-12-24T20:51:21.025Z,4.70
2022-12-24T20:53:52.040Z,5.10
2022-12-24T20:56:20.030Z,5.43
2022-12-24T20:58:48.646Z,5.03
2022-12-24T21:01:19.398Z,5.00
2022-12-24T21:03:47.609Z,4.67
2022-12-24T21:06:17.673Z,5.00
2022-12-24T21:08:45.777Z,5.20
2022-12-24T21:11:31.364Z,5.23
2022-12-24T21:13:59.262Z,4.97
2022-12-24T21:16:28.731Z,5.60
2022-12-24T21:18:56.583Z,4.80
2022-12-24T21:21:24.485Z,4.63
2022-12-24T21:23:53.571Z,5.30
2022-12-24T21:26:21.329Z,4.77
2022-12-24T21:28:50.413Z,5.13
2022-12-24T21:31:19.439Z,5.10
2022-12-24T21:33:48.878Z,5.20
2022-12-24T21:36:17.000Z,4.77
2022-12-24T21:38:44.910Z,5.03
2022-12-24T21:41:13.557Z,5.50
2022-12-24T21:43:41.537Z,4.70
2022-12-24T21:46:09.852Z,4.70
2022-12-24T21:48:55.441Z,5.27
2022-12-24T21:51:28.169Z,5.60
2022-12-24T21:54:13.876Z,5.07
2022-12-24T21:56:55.622Z,5.20
2022-12-24T21:59:26.627Z,4.20
2022-12-24T22:01:55.524Z,5.10
2022-12-24T22:04:23.561Z,4.60
2022-12-24T22:07:10.157Z,5.00
2022-12-24T22:09:56.171Z,5.00
2022-12-24T22:12:23.948Z,4.43
2022-12-24T22:14:51.954Z,5.40
2022-12-24T22:17:24.729Z,4.63
2022-12-24T22:19:53.415Z,5.47
2022-12-24T22:22:22.549Z,4.53
2022-12-24T22:24:50.344Z,5.00
2022-12-24T22:27:18.050Z,5.30
2022-12-24T22:29:45.795Z,5.20
2022-12-24T22:32:13.757Z,4.90
2022-12-24T22:34:41.463Z,5.00
2022-12-24T22:37:09.238Z,5.07
2022-12-24T22:39:39.077Z,5.10
2022-12-24T22:42:07.013Z,4.57
2022-12-24T22:44:34.726Z,4.77
2022-12-24T22:47:02.433Z,4.67
2022-12-24T22:49:30.302Z,5.00
2022-12-24T22:51:58.653Z,4.83
2022-12-24T22:54:26.361Z,4.70
2022-12-24T22:56:55.382Z,4.53
2022-12-24T22:59:23.082Z,4.87
2022-12-24T23:01:52.524Z,4.80
2022-12-24T23:04:20.602Z,4.70
2022-12-24T23:06:48.643Z,4.87
2022-12-24T23:09:17.018Z,4.57
2022-12-24T23:11:44.849Z,4.50
2022-12-24T23:14:34.907Z,5.17
2022-12-24T23:17:02.687Z,4.27
2022-12-24T23:19:31.859Z,4.60
2022-12-24T23:21:59.574Z,4.60
2022-12-24T23:24:27.310Z,4.60
2022-12-24T23:26:55.005Z,5.30
2022-12-24T23:29:24.010Z,4.90
2022-12-24T23:31:51.687Z,4.77
2022-12-24T23:34:19.412Z,5.00
2022-12-24T23:36:47.126Z,4.57
2022-12-24T23:39:14.863Z,5.40
2022-12-24T23:41:42.542Z,4.70
2022-12-24T23:44:10.218Z,5.37
2022-12-24T23:46:40.035Z,4.40
2022-12-24T23:49:07.990Z,4.47
2022-12-24T23:51:35.850Z,5.00
2022-12-24T23:54:03.671Z,4.90
2022-12-24T23:56:31.586Z,4.83
2022-12-24T23:58:59.841Z,4.67
